Wetterdaten: Woche 24.12.12 - 30.12.12 (KW52)
Datum Zeit Temp. Innen Temp. Aussen Temp. 2 +5cm Bl.Temp 1 Feuchte Auss Feuchte 2 BlattFeu 1 Luftdruck Regen Sonnenschein T Regendauer ET UV Solar Windben Empfang
24.12.2012 00:00 14,6 C 8,7 C -22,6 C 5,2 C 0,0 C 97 % 0 % 0 lf 1008,3 hPa 1,0 l/m 0,00 h 0,00 h 0,000 mm 0,0 UV-I 0 W/m 2,6 km/h (1 Bft) 0,00 %
24.12.2012 01:00 14,6 C 8,7 C -22,6 C 5,3 C 0,0 C 97 % 0 % 0 lf 1008,2 hPa 1,2 l/m 0,00 h 0,00 h 0,000 mm 0,0 UV-I 0 W/m 1,5 km/h (1 Bft) 0,00 %
24.12.2012 02:00 14,7 C 8,6 C -22,6 C 5,3 C 0,0 C 98 % 0 % 0 lf 1008,0 hPa 0,9 l/m 0,00 h 0,00 h 0,000 mm 0,0 UV-I 0 W/m 0,5 km/h (0 Bft) 0,00 %
24.12.2012 03:00 14,7 C 8,7 C -22,6 C 5,4 C 0,0 C 98 % 0 % 0 lf 1008,1 hPa 1,5 l/m 0,00 h 0,00 h 0,000 mm 0,0 UV-I 0 W/m 0,2 km/h (0 Bft) 0,00 %
24.12.2012 04:00 14,8 C 8,6 C -22,6 C 5,3 C 0,0 C 98 % 0 % 0 lf 1007,6 hPa 1,1 l/m 0,00 h 0,00 h 0,000 mm 0,0 UV-I 0 W/m 1,2 km/h (1 Bft) 0,00 %
24.12.2012 05:00 14,8 C 8,0 C -22,7 C 5,0 C 0,0 C 97 % 0 % 0 lf 1007,4 hPa 0,5 l/m 0,00 h 0,00 h 0,000 mm 0,0 UV-I 0 W/m 0,2 km/h (0 Bft) 0,00 %
24.12.2012 06:00 14,8 C 7,9 C -22,7 C 4,8 C 0,0 C 98 % 0 % 0 lf 1007,1 hPa 0,2 l/m 0,00 h 0,00 h 0,000 mm 0,0 UV-I 0 W/m 0,0 km/h (0 Bft) 0,00 %
24.12.2012 07:00 14,8 C 8,1 C -6,7 C 5,0 C 0,0 C 98 % 0 % 0 lf 1006,5 hPa 0,7 l/m 0,00 h 0,00 h 0,000 mm 0,0 UV-I 0 W/m 0,9 km/h (0 Bft) 0,00 %
24.12.2012 08:00 14,8 C 8,4 C -13,7 C 5,5 C 0,0 C 98 % 0 % 0 lf 1006,1 hPa 0,1 l/m 0,00 h 0,00 h 0,000 mm 0,0 UV-I 0 W/m 2,3 km/h (1 Bft) 0,00 %
24.12.2012 09:00 14,8 C 8,6 C -22,6 C 5,9 C 0,0 C 98 % 0 % 0 lf 1005,5 hPa 0,1 l/m 0,00 h 0,00 h 0,000 mm 0,0 UV-I 0 W/m 5,0 km/h (1 Bft) 0,00 %
24.12.2012 10:00 14,8 C 9,1 C -22,5 C 6,5 C 0,0 C 98 % 0 % 0 lf 1005,6 hPa 0,0 l/m 0,00 h 0,00 h 0,000 mm 0,0 UV-I 0 W/m 3,5 km/h (1 Bft) 0,00 %
24.12.2012 11:00 15,0 C 10,6 C -22,4 C 7,8 C 0,0 C 99 % 0 % 0 lf 1005,2 hPa 0,0 l/m 0,00 h 0,00 h 0,000 mm 0,1 UV-I 0 W/m 2,8 km/h (1 Bft) 0,00 %
24.12.2012 12:00 15,3 C 11,9 C -22,3 C 8,7 C 0,1 C 98 % 0 % 0 lf 1004,5 hPa 0,0 l/m 0,00 h 0,00 h 0,000 mm 0,1 UV-I 0 W/m 5,9 km/h (2 Bft) 0,00 %
24.12.2012 13:00 15,6 C 12,8 C -22,2 C 9,3 C 0,1 C 96 % 0 % 0 lf 1003,4 hPa 0,0 l/m 0,00 h 0,00 h 0,000 mm 0,1 UV-I 0 W/m 6,1 km/h (2 Bft) 0,00 %
24.12.2012 14:00 15,9 C 13,1 C -22,2 C 9,3 C 0,0 C 95 % 0 % 0 lf 1001,9 hPa 0,0 l/m 0,00 h 0,00 h 0,000 mm 0,1 UV-I 0 W/m 7,8 km/h (2 Bft) 0,00 %
24.12.2012 15:00 16,1 C 12,6 C -22,3 C 8,3 C 0,0 C 93 % 0 % 0 lf 1000,6 hPa 0,0 l/m 0,00 h 0,00 h 0,000 mm 0,0 UV-I 0 W/m 11,2 km/h (2 Bft) 0,00 %
24.12.2012 16:00 15,8 C 12,2 C -22,3 C 7,4 C 0,0 C 89 % 0 % 0 lf 999,9 hPa 0,0 l/m 0,00 h 0,00 h 0,000 mm 0,0 UV-I 0 W/m 15,6 km/h (3 Bft) 0,00 %
24.12.2012 17:00 15,6 C 12,0 C -22,3 C 6,6 C 0,0 C 87 % 0 % 0 lf 999,4 hPa 0,0 l/m 0,00 h 0,00 h 0,000 mm 0,0 UV-I 0 W/m 13,3 km/h (3 Bft) 0,00 %
24.12.2012 18:00 15,4 C 11,3 C -22,4 C 5,2 C 0,0 C 85 % 0 % 0 lf 999,7 hPa 0,0 l/m 0,00 h 0,00 h 0,000 mm 0,0 UV-I 0 W/m 5,7 km/h (1 Bft) 0,00 %
24.12.2012 19:00 15,4 C 12,2 C -22,3 C 5,6 C 0,0 C 78 % 0 % 0 lf 999,5 hPa 0,0 l/m 0,00 h 0,00 h 0,000 mm 0,0 UV-I 0 W/m 13,7 km/h (3 Bft) 0,00 %
24.12.2012 20:00 15,4 C 13,0 C -22,2 C 7,6 C 0,0 C 75 % 0 % 0 lf 999,7 hPa 0,0 l/m 0,00 h 0,00 h 0,000 mm 0,0 UV-I 0 W/m 19,0 km/h (3 Bft) 0,00 %
24.12.2012 21:00 15,5 C 13,2 C -22,2 C 8,4 C 0,0 C 78 % 0 % 0 lf 999,9 hPa 0,0 l/m 0,00 h 0,00 h 0,000 mm 0,0 UV-I 0 W/m 18,8 km/h (3 Bft) 0,00 %
24.12.2012 22:00 15,6 C 13,3 C -22,2 C 9,0 C 0,0 C 80 % 0 % 0 lf 1000,0 hPa 0,0 l/m 0,00 h 0,00 h 0,000 mm 0,0 UV-I 0 W/m 13,7 km/h (3 Bft) 0,00 %
24.12.2012 23:00 15,6 C 13,0 C -22,2 C 9,0 C 0,0 C 81 % 0 % 0 lf 999,8 hPa 0,0 l/m 0,00 h 0,00 h 0,000 mm 0,0 UV-I 0 W/m 11,1 km/h (2 Bft) 0,00 %
25.12.2012 00:00 15,6 C 12,6 C -22,3 C 8,4 C 0,0 C 81 % 0 % 0 lf 999,4 hPa 0,0 l/m 0,00 h 0,00 h 0,000 mm 0,0 UV-I 0 W/m 10,2 km/h (2 Bft) 0,00 %
25.12.2012 01:00 15,6 C 12,2 C -22,3 C 7,6 C 0,0 C 83 % 0 % 0 lf 998,9 hPa 0,0 l/m 0,00 h 0,00 h 0,000 mm 0,0 UV-I 0 W/m 6,8 km/h (2 Bft) 0,00 %
25.12.2012 02:00 15,6 C 12,3 C -22,3 C 7,8 C 0,0 C 84 % 0 % 0 lf 998,0 hPa 0,0 l/m 0,00 h 0,00 h 0,000 mm 0,0 UV-I 0 W/m 9,9 km/h (2 Bft) 0,00 %
25.12.2012 03:00 15,6 C 12,6 C -22,2 C 8,1 C 0,0 C 83 % 0 % 0 lf 997,3 hPa 0,0 l/m 0,00 h 0,00 h 0,000 mm 0,0 UV-I 0 W/m 11,5 km/h (2 Bft) 0,00 %
25.12.2012 04:00 15,7 C 12,4 C -22,3 C 8,1 C 0,0 C 80 % 0 % 0 lf 996,2 hPa 0,0 l/m 0,00 h 0,00 h 0,000 mm 0,0 UV-I 0 W/m 13,1 km/h (3 Bft) 0,00 %
25.12.2012 05:00 15,7 C 12,2 C -22,3 C 7,9 C 0,0 C 76 % 0 % 0 lf 995,8 hPa 0,0 l/m 0,00 h 0,00 h 0,000 mm 0,0 UV-I 0 W/m 15,5 km/h (3 Bft) 0,00 %
25.12.2012 06:00 15,6 C 12,6 C -22,2 C 8,1 C 0,0 C 75 % 0 % 0 lf 995,8 hPa 0,0 l/m 0,00 h 0,00 h 0,000 mm 0,0 UV-I 0 W/m 20,8 km/h (4 Bft) 0,00 %
25.12.2012 07:00 15,6 C 11,3 C 7,7 C 7,7 C 0,0 C 84 % 0 % 0 lf 996,7 hPa 0,7 l/m 0,00 h 0,00 h 0,000 mm 0,0 UV-I 0 W/m 19,0 km/h (3 Bft) 0,00 %
25.12.2012 08:00 15,5 C 9,9 C -22,5 C 7,0 C 0,0 C 92 % 0 % 0 lf 997,5 hPa 0,9 l/m 0,00 h 0,00 h 0,000 mm 0,0 UV-I 0 W/m 15,2 km/h (3 Bft) 0,00 %
25.12.2012 09:00 15,2 C 9,1 C -22,5 C 6,2 C 0,0 C 94 % 0 % 0 lf 998,9 hPa 0,9 l/m 0,00 h 0,00 h 0,000 mm 0,0 UV-I 0 W/m 13,9 km/h (3 Bft) 0,00 %
25.12.2012 10:00 15,2 C 8,8 C -22,5 C 6,0 C 0,0 C 95 % 0 % 0 lf 999,2 hPa 0,0 l/m 0,00 h 0,00 h 0,000 mm 0,0 UV-I 0 W/m 12,7 km/h (3 Bft) 0,00 %
25.12.2012 11:00 15,2 C 8,8 C -22,5 C 6,1 C 0,0 C 94 % 0 % 0 lf 999,9 hPa 0,2 l/m 0,00 h 0,00 h 0,000 mm 0,0 UV-I 0 W/m 13,5 km/h (3 Bft) 0,00 %
25.12.2012 12:00 15,1 C 8,8 C -22,5 C 6,3 C 0,0 C 95 % 0 % 0 lf 999,6 hPa 1,0 l/m 0,00 h 0,00 h 0,000 mm 0,1 UV-I 0 W/m 15,6 km/h (3 Bft) 0,00 %
25.12.2012 13:00 15,3 C 9,3 C -17,1 C 6,5 C 0,1 C 93 % 0 % 0 lf 999,0 hPa 0,0 l/m 0,00 h 0,00 h 0,000 mm 0,2 UV-I 0 W/m 16,6 km/h (3 Bft) 0,00 %
25.12.2012 14:00 15,7 C 10,0 C -22,4 C 5,9 C 0,1 C 89 % 0 % 0 lf 998,6 hPa 0,0 l/m 0,00 h 0,00 h 0,000 mm 0,1 UV-I 0 W/m 20,3 km/h (4 Bft) 0,00 %
25.12.2012 15:00 15,6 C 9,9 C -17,1 C 5,6 C 0,0 C 86 % 0 % 0 lf 998,0 hPa 0,0 l/m 0,00 h 0,00 h 0,000 mm 0,0 UV-I 0 W/m 18,0 km/h (3 Bft) 0,00 %
25.12.2012 16:00 15,4 C 10,4 C 10,6 C 5,4 C 0,0 C 83 % 0 % 0 lf 997,8 hPa 0,1 l/m 0,00 h 0,00 h 0,000 mm 0,0 UV-I 0 W/m 21,0 km/h (4 Bft) 0,00 %
25.12.2012 17:00 15,0 C 10,0 C -8,2 C 4,9 C 0,0 C 85 % 0 % 0 lf 997,8 hPa 0,1 l/m 0,00 h 0,00 h 0,000 mm 0,0 UV-I 0 W/m 18,8 km/h (3 Bft) 0,00 %
25.12.2012 18:00 14,5 C 10,2 C -6,5 C 5,1 C 0,0 C 82 % 0 % 0 lf 997,9 hPa 0,1 l/m 0,00 h 0,00 h 0,000 mm 0,0 UV-I 0 W/m 28,6 km/h (4 Bft) 0,00 %
25.12.2012 19:00 14,2 C 9,9 C -17,1 C 5,1 C 0,0 C 85 % 0 % 0 lf 998,6 hPa 0,1 l/m 0,00 h 0,00 h 0,000 mm 0,0 UV-I 0 W/m 24,1 km/h (4 Bft) 0,00 %
25.12.2012 20:00 14,0 C 10,0 C -22,4 C 5,3 C 0,0 C 83 % 0 % 0 lf 999,5 hPa 0,0 l/m 0,00 h 0,00 h 0,000 mm 0,0 UV-I 0 W/m 34,2 km/h (5 Bft) 0,00 %
25.12.2012 21:00 14,0 C 9,9 C -22,4 C 5,3 C 0,0 C 84 % 0 % 0 lf 1000,1 hPa 0,0 l/m 0,00 h 0,00 h 0,000 mm 0,0 UV-I 0 W/m 21,7 km/h (4 Bft) 0,00 %
25.12.2012 22:00 13,8 C 10,0 C -22,5 C 5,0 C 0,0 C 83 % 0 % 0 lf 1000,9 hPa 0,0 l/m 0,00 h 0,00 h 0,000 mm 0,0 UV-I 0 W/m 24,4 km/h (4 Bft) 0,00 %
25.12.2012 23:00 13,7 C 10,0 C -22,5 C 4,6 C 0,0 C 83 % 0 % 0 lf 1001,7 hPa 0,0 l/m 0,00 h 0,00 h 0,000 mm 0,0 UV-I 0 W/m 23,3 km/h (4 Bft) 0,00 %
26.12.2012 00:00 13,6 C 10,0 C -22,5 C 4,3 C 0,0 C 83 % 0 % 0 lf 1002,4 hPa 0,0 l/m 0,00 h 0,00 h 0,000 mm 0,0 UV-I 0 W/m 23,9 km/h (4 Bft) 0,00 %
26.12.2012 01:00 13,4 C 8,9 C -22,5 C 4,2 C 0,0 C 85 % 0 % 0 lf 1002,7 hPa 0,0 l/m 0,00 h 0,00 h 0,000 mm 0,0 UV-I 0 W/m 26,3 km/h (4 Bft) 0,00 %
26.12.2012 02:00 13,2 C 8,7 C -22,5 C 4,7 C 0,0 C 86 % 0 % 0 lf 1003,1 hPa 0,0 l/m 0,00 h 0,00 h 0,000 mm 0,0 UV-I 0 W/m 19,5 km/h (3 Bft) 0,00 %
26.12.2012 03:00 13,5 C 8,7 C -22,5 C 4,7 C 0,0 C 86 % 0 % 0 lf 1003,5 hPa 0,0 l/m 0,00 h 0,00 h 0,000 mm 0,0 UV-I 0 W/m 13,3 km/h (3 Bft) 0,00 %
26.12.2012 04:00 13,8 C 8,7 C -22,5 C 4,4 C 0,0 C 86 % 0 % 0 lf 1004,0 hPa 0,0 l/m 0,00 h 0,00 h 0,000 mm 0,0 UV-I 0 W/m 14,4 km/h (3 Bft) 0,00 %
26.12.2012 05:00 13,9 C 8,7 C -22,5 C 4,3 C 0,0 C 86 % 0 % 0 lf 1004,3 hPa 0,0 l/m 0,00 h 0,00 h 0,000 mm 0,0 UV-I 0 W/m 13,1 km/h (3 Bft) 0,00 %
26.12.2012 06:00 14,0 C 8,7 C -20,8 C 3,5 C 0,0 C 86 % 0 % 0 lf 1004,4 hPa 0,0 l/m 0,00 h 0,00 h 0,000 mm 0,0 UV-I 0 W/m 7,6 km/h (2 Bft) 0,00 %
26.12.2012 07:00 14,1 C 7,7 C -1,3 C 4,1 C 0,0 C 90 % 0 % 0 lf 1004,9 hPa 0,6 l/m 0,00 h 0,00 h 0,000 mm 0,0 UV-I 0 W/m 10,0 km/h (2 Bft) 0,00 %
26.12.2012 08:00 14,0 C 7,0 C -22,7 C 4,0 C 0,0 C 91 % 0 % 0 lf 1005,3 hPa 0,6 l/m 0,00 h 0,00 h 0,000 mm 0,0 UV-I 0 W/m 8,1 km/h (2 Bft) 0,00 %
26.12.2012 09:00 14,0 C 6,6 C -13,8 C 4,1 C 0,0 C 93 % 0 % 0 lf 1006,1 hPa 0,1 l/m 0,00 h 0,00 h 0,000 mm 0,0 UV-I 0 W/m 6,7 km/h (2 Bft) 0,00 %
26.12.2012 10:00 14,0 C 6,7 C -22,7 C 4,2 C 0,0 C 94 % 0 % 0 lf 1007,3 hPa 0,1 l/m 0,00 h 0,00 h 0,000 mm 0,0 UV-I 0 W/m 11,7 km/h (2 Bft) 0,00 %
26.12.2012 11:00 14,1 C 7,1 C -22,6 C 4,5 C 0,0 C 94 % 0 % 0 lf 1007,9 hPa 0,0 l/m 0,00 h 0,00 h 0,000 mm 0,1 UV-I 0 W/m 17,2 km/h (3 Bft) 0,00 %
26.12.2012 12:00 13,7 C 7,7 C -22,5 C 5,6 C 0,1 C 92 % 0 % 0 lf 1008,2 hPa 0,0 l/m 0,00 h 0,00 h 0,000 mm 0,1 UV-I 0 W/m 22,0 km/h (4 Bft) 0,00 %
26.12.2012 13:00 13,6 C 8,3 C -22,5 C 5,4 C 0,2 C 88 % 0 % 0 lf 1008,1 hPa 0,0 l/m 0,00 h 0,00 h 0,000 mm 0,2 UV-I 0 W/m 28,2 km/h (4 Bft) 0,00 %
26.12.2012 14:00 14,0 C 8,8 C -22,5 C 5,2 C 0,0 C 84 % 0 % 0 lf 1008,5 hPa 0,0 l/m 0,00 h 0,00 h 0,000 mm 0,1 UV-I 0 W/m 24,3 km/h (4 Bft) 0,00 %
26.12.2012 15:00 13,8 C 8,8 C -22,5 C 5,2 C 0,0 C 84 % 0 % 0 lf 1007,9 hPa 0,0 l/m 0,00 h 0,00 h 0,000 mm 0,0 UV-I 0 W/m 20,7 km/h (4 Bft) 0,00 %
26.12.2012 16:00 13,5 C 8,5 C 1,3 C 4,6 C 0,0 C 87 % 0 % 0 lf 1007,9 hPa 0,2 l/m 0,00 h 0,00 h 0,000 mm 0,0 UV-I 0 W/m 25,4 km/h (4 Bft) 0,00 %
26.12.2012 17:00 13,2 C 7,7 C -13,6 C 4,5 C 0,0 C 92 % 0 % 0 lf 1007,9 hPa 0,5 l/m 0,00 h 0,00 h 0,000 mm 0,0 UV-I 0 W/m 14,7 km/h (3 Bft) 0,00 %
26.12.2012 18:00 13,1 C 8,2 C -22,5 C 4,8 C 0,0 C 94 % 0 % 0 lf 1007,5 hPa 0,0 l/m 0,00 h 0,00 h 0,000 mm 0,0 UV-I 0 W/m 16,9 km/h (3 Bft) 0,00 %
26.12.2012 19:00 13,2 C 8,7 C -22,5 C 5,0 C 0,0 C 93 % 0 % 0 lf 1006,9 hPa 0,1 l/m 0,00 h 0,00 h 0,000 mm 0,0 UV-I 0 W/m 18,8 km/h (3 Bft) 0,00 %
26.12.2012 20:00 13,5 C 9,1 C -22,5 C 5,2 C 0,0 C 90 % 0 % 0 lf 1006,4 hPa 0,0 l/m 0,00 h 0,00 h 0,000 mm 0,0 UV-I 0 W/m 20,7 km/h (4 Bft) 0,00 %
26.12.2012 21:00 13,7 C 9,5 C -20,7 C 5,3 C 0,0 C 86 % 0 % 0 lf 1005,6 hPa 0,0 l/m 0,00 h 0,00 h 0,000 mm 0,0 UV-I 0 W/m 23,2 km/h (4 Bft) 0,00 %
26.12.2012 22:00 13,8 C 9,1 C 28,8 C 5,2 C 0,0 C 88 % 0 % 0 lf 1004,2 hPa 1,2 l/m 0,00 h 0,00 h 0,000 mm 0,0 UV-I 0 W/m 18,3 km/h (3 Bft) 0,00 %
26.12.2012 23:00 13,8 C 8,7 C -22,5 C 5,4 C 0,0 C 92 % 0 % 0 lf 1003,1 hPa 4,2 l/m 0,00 h 0,00 h 0,000 mm 0,0 UV-I 0 W/m 23,7 km/h (4 Bft) 0,00 %
27.12.2012 00:00 13,8 C 8,7 C -22,6 C 5,5 C 0,0 C 94 % 0 % 0 lf 1002,5 hPa 1,2 l/m 0,00 h 0,00 h 0,000 mm 0,0 UV-I 0 W/m 24,8 km/h (4 Bft) 0,00 %
27.12.2012 01:00 13,8 C 9,2 C -20,7 C 5,8 C 0,0 C 95 % 0 % 0 lf 1001,8 hPa 0,2 l/m 0,00 h 0,00 h 0,000 mm 0,0 UV-I 0 W/m 26,3 km/h (4 Bft) 0,00 %
27.12.2012 02:00 13,9 C 9,3 C 2,3 C 5,8 C 0,0 C 92 % 0 % 0 lf 1001,7 hPa 0,4 l/m 0,00 h 0,00 h 0,000 mm 0,0 UV-I 0 W/m 30,9 km/h (5 Bft) 0,00 %
27.12.2012 03:00 13,8 C 9,1 C -22,5 C 5,2 C 0,0 C 90 % 0 % 0 lf 1002,2 hPa 0,0 l/m 0,00 h 0,00 h 0,000 mm 0,0 UV-I 0 W/m 24,2 km/h (4 Bft) 0,00 %
27.12.2012 04:00 13,8 C 9,0 C -22,5 C 4,4 C 0,0 C 86 % 0 % 0 lf 1002,7 hPa 0,0 l/m 0,00 h 0,00 h 0,000 mm 0,0 UV-I 0 W/m 26,4 km/h (4 Bft) 0,00 %
27.12.2012 05:00 13,7 C 8,5 C -22,6 C 3,6 C 0,0 C 84 % 0 % 0 lf 1003,0 hPa 0,0 l/m 0,00 h 0,00 h 0,000 mm 0,0 UV-I 0 W/m 20,4 km/h (4 Bft) 0,00 %
27.12.2012 06:00 13,6 C 8,2 C -22,6 C 3,4 C 0,0 C 86 % 0 % 0 lf 1003,2 hPa 0,0 l/m 0,00 h 0,00 h 0,000 mm 0,0 UV-I 0 W/m 18,2 km/h (3 Bft) 0,00 %
27.12.2012 07:00 13,6 C 8,2 C -22,5 C 3,6 C 0,0 C 88 % 0 % 0 lf 1003,2 hPa 0,0 l/m 0,00 h 0,00 h 0,000 mm 0,0 UV-I 0 W/m 15,9 km/h (3 Bft) 0,00 %
27.12.2012 08:00 13,7 C 8,5 C -22,5 C 4,0 C 0,0 C 88 % 0 % 0 lf 1003,0 hPa 0,0 l/m 0,00 h 0,00 h 0,000 mm 0,0 UV-I 0 W/m 20,2 km/h (4 Bft) 0,00 %
27.12.2012 09:00 13,6 C 8,7 C -22,5 C 4,2 C 0,0 C 87 % 0 % 0 lf 1002,7 hPa 0,0 l/m 0,00 h 0,00 h 0,000 mm 0,0 UV-I 0 W/m 21,2 km/h (4 Bft) 0,00 %
27.12.2012 10:00 13,7 C 8,8 C -22,5 C 4,2 C 0,0 C 87 % 0 % 0 lf 1002,5 hPa 0,0 l/m 0,00 h 0,00 h 0,000 mm 0,1 UV-I 0 W/m 13,5 km/h (3 Bft) 0,00 %
27.12.2012 11:00 14,0 C 9,5 C -22,4 C 5,3 C 0,1 C 86 % 0 % 0 lf 1001,9 hPa 0,0 l/m 0,00 h 0,00 h 0,000 mm 0,1 UV-I 0 W/m 12,7 km/h (3 Bft) 0,00 %
27.12.2012 12:00 14,2 C 9,8 C 6,4 C 6,3 C 0,0 C 86 % 0 % 0 lf 1001,1 hPa 0,4 l/m 0,00 h 0,00 h 0,000 mm 0,2 UV-I 0 W/m 10,6 km/h (2 Bft) 0,00 %
27.12.2012 13:00 14,3 C 9,0 C 27,2 C 6,1 C 0,0 C 89 % 0 % 0 lf 1000,3 hPa 0,9 l/m 0,00 h 0,00 h 0,000 mm 0,0 UV-I 0 W/m 0,9 km/h (0 Bft) 0,00 %
27.12.2012 14:00 14,4 C 8,6 C 5,9 C 5,9 C 0,0 C 92 % 0 % 0 lf 999,5 hPa 0,2 l/m 0,00 h 0,00 h 0,000 mm 0,0 UV-I 0 W/m 0,4 km/h (0 Bft) 0,00 %
27.12.2012 15:00 14,3 C 8,4 C -10,1 C 5,6 C 0,0 C 93 % 0 % 0 lf 999,3 hPa 0,1 l/m 0,00 h 0,00 h 0,000 mm 0,0 UV-I 0 W/m 0,0 km/h (0 Bft) 0,00 %
27.12.2012 16:00 14,3 C 7,9 C 14,7 C 5,2 C 0,0 C 94 % 0 % 0 lf 1000,4 hPa 1,4 l/m 0,00 h 0,00 h 0,000 mm 0,0 UV-I 0 W/m 2,8 km/h (1 Bft) 0,00 %
27.12.2012 17:00 14,2 C 7,4 C -19,1 C 4,7 C 0,0 C 94 % 0 % 0 lf 1001,4 hPa 5,3 l/m 0,00 h 0,00 h 0,000 mm 0,0 UV-I 0 W/m 5,9 km/h (2 Bft) 0,00 %
27.12.2012 18:00 14,2 C 6,7 C -22,7 C 4,3 C 0,0 C 95 % 0 % 0 lf 1002,8 hPa 1,6 l/m 0,00 h 0,00 h 0,000 mm 0,0 UV-I 0 W/m 0,3 km/h (0 Bft) 0,00 %
27.12.2012 19:00 14,2 C 6,7 C 0,3 C 4,2 C 0,0 C 96 % 0 % 0 lf 1004,2 hPa 0,9 l/m 0,00 h 0,00 h 0,000 mm 0,0 UV-I 0 W/m 1,3 km/h (1 Bft) 0,00 %
27.12.2012 20:00 14,1 C 6,6 C 23,4 C 4,0 C 0,0 C 96 % 0 % 0 lf 1006,4 hPa 0,7 l/m 0,00 h 0,00 h 0,000 mm 0,0 UV-I 0 W/m 4,0 km/h (1 Bft) 0,00 %
27.12.2012 21:00 14,2 C 6,4 C -12,0 C 3,8 C 0,0 C 96 % 0 % 0 lf 1008,7 hPa 0,1 l/m 0,00 h 0,00 h 0,000 mm 0,0 UV-I 0 W/m 1,9 km/h (1 Bft) 0,00 %
27.12.2012 22:00 14,2 C 6,6 C -22,7 C 4,2 C 0,0 C 97 % 0 % 0 lf 1010,9 hPa 0,0 l/m 0,00 h 0,00 h 0,000 mm 0,0 UV-I 0 W/m 3,1 km/h (1 Bft) 0,00 %
27.12.2012 23:00 14,2 C 6,8 C -15,8 C 4,4 C 0,0 C 97 % 0 % 0 lf 1013,2 hPa 0,0 l/m 0,00 h 0,00 h 0,000 mm 0,0 UV-I 0 W/m 5,9 km/h (2 Bft) 0,00 %
28.12.2012 00:00 14,2 C 6,8 C -22,7 C 4,4 C 0,0 C 97 % 0 % 0 lf 1015,1 hPa 0,0 l/m 0,00 h 0,00 h 0,000 mm 0,0 UV-I 0 W/m 13,6 km/h (3 Bft) 0,00 %
28.12.2012 01:00 14,2 C 6,3 C -22,7 C 4,4 C 0,0 C 97 % 0 % 0 lf 1016,7 hPa 0,0 l/m 0,00 h 0,00 h 0,000 mm 0,0 UV-I 0 W/m 9,6 km/h (2 Bft) 0,00 %
28.12.2012 02:00 14,2 C 6,0 C -22,7 C 4,3 C 0,0 C 97 % 0 % 0 lf 1018,2 hPa 0,0 l/m 0,00 h 0,00 h 0,000 mm 0,0 UV-I 0 W/m 1,4 km/h (1 Bft) 0,00 %
28.12.2012 03:00 14,2 C 5,8 C -22,7 C 4,2 C 0,0 C 96 % 0 % 0 lf 1019,6 hPa 0,0 l/m 0,00 h 0,00 h 0,000 mm 0,0 UV-I 0 W/m 12,5 km/h (3 Bft) 0,00 %
28.12.2012 04:00 14,2 C 5,2 C -22,8 C 3,5 C 0,0 C 95 % 0 % 0 lf 1020,3 hPa 0,1 l/m 0,00 h 0,00 h 0,000 mm 0,0 UV-I 0 W/m 0,3 km/h (0 Bft) 0,00 %
28.12.2012 05:00 14,1 C 5,0 C -22,8 C 3,6 C 0,0 C 96 % 0 % 0 lf 1021,4 hPa 0,0 l/m 0,00 h 0,00 h 0,000 mm 0,0 UV-I 0 W/m 1,4 km/h (1 Bft) 0,00 %
28.12.2012 06:00 14,1 C 4,9 C -22,8 C 3,3 C 0,0 C 95 % 0 % 0 lf 1022,1 hPa 0,0 l/m 0,00 h 0,00 h 0,000 mm 0,0 UV-I 0 W/m 0,4 km/h (0 Bft) 0,00 %
28.12.2012 07:00 14,0 C 4,9 C -22,8 C 3,5 C 0,0 C 95 % 0 % 0 lf 1022,9 hPa 0,0 l/m 0,00 h 0,00 h 0,000 mm 0,0 UV-I 0 W/m 0,0 km/h (0 Bft) 0,00 %
28.12.2012 08:00 13,9 C 4,7 C -22,9 C 3,0 C 0,0 C 95 % 0 % 0 lf 1023,3 hPa 0,0 l/m 0,00 h 0,00 h 0,000 mm 0,0 UV-I 0 W/m 1,3 km/h (1 Bft) 0,00 %
28.12.2012 09:00 14,0 C 4,8 C -22,8 C 3,3 C 0,0 C 95 % 0 % 0 lf 1023,8 hPa 0,0 l/m 0,00 h 0,00 h 0,000 mm 0,0 UV-I 0 W/m 5,7 km/h (1 Bft) 0,00 %
28.12.2012 10:00 14,0 C 5,6 C -22,7 C 4,5 C 0,0 C 96 % 0 % 0 lf 1023,8 hPa 0,0 l/m 0,00 h 0,00 h 0,000 mm 0,0 UV-I 0 W/m 6,5 km/h (2 Bft) 0,00 %
28.12.2012 11:00 14,1 C 6,9 C -22,5 C 6,0 C 0,0 C 96 % 0 % 0 lf 1024,1 hPa 0,0 l/m 0,00 h 0,00 h 0,000 mm 0,0 UV-I 0 W/m 7,9 km/h (2 Bft) 0,00 %
28.12.2012 12:00 14,0 C 7,8 C -22,5 C 6,7 C 0,0 C 93 % 0 % 0 lf 1023,4 hPa 0,0 l/m 0,00 h 0,00 h 0,000 mm 0,1 UV-I 0 W/m 7,5 km/h (2 Bft) 0,00 %
28.12.2012 13:00 14,3 C 8,2 C -22,5 C 6,6 C 0,0 C 90 % 0 % 0 lf 1023,3 hPa 0,0 l/m 0,00 h 0,00 h 0,000 mm 0,1 UV-I 0 W/m 11,1 km/h (2 Bft) 0,00 %
28.12.2012 14:00 14,4 C 8,3 C -13,7 C 6,3 C 0,0 C 88 % 0 % 0 lf 1022,7 hPa 0,0 l/m 0,00 h 0,00 h 0,000 mm 0,0 UV-I 0 W/m 10,0 km/h (2 Bft) 0,00 %
28.12.2012 15:00 14,3 C 8,0 C 23,5 C 5,8 C 0,0 C 89 % 0 % 0 lf 1022,1 hPa 0,4 l/m 0,00 h 0,00 h 0,000 mm 0,0 UV-I 0 W/m 11,1 km/h (2 Bft) 0,00 %
28.12.2012 16:00 14,2 C 7,3 C 9,4 C 5,3 C 0,0 C 92 % 0 % 0 lf 1021,7 hPa 1,2 l/m 0,00 h 0,00 h 0,000 mm 0,0 UV-I 0 W/m 12,3 km/h (3 Bft) 0,00 %
28.12.2012 17:00 14,2 C 7,2 C -22,6 C 5,2 C 0,0 C 94 % 0 % 0 lf 1021,3 hPa 0,4 l/m 0,00 h 0,00 h 0,000 mm 0,0 UV-I 0 W/m 11,5 km/h (2 Bft) 0,00 %
28.12.2012 18:00 14,2 C 7,2 C -22,6 C 5,3 C 0,0 C 95 % 0 % 0 lf 1021,1 hPa 0,9 l/m 0,00 h 0,00 h 0,000 mm 0,0 UV-I 0 W/m 11,7 km/h (2 Bft) 0,00 %
28.12.2012 19:00 14,2 C 7,3 C -22,6 C 5,5 C 0,0 C 96 % 0 % 0 lf 1020,4 hPa 0,1 l/m 0,00 h 0,00 h 0,000 mm 0,0 UV-I 0 W/m 12,5 km/h (3 Bft) 0,00 %
28.12.2012 20:00 14,2 C 7,4 C -19,0 C 5,7 C 0,0 C 97 % 0 % 0 lf 1020,2 hPa 0,1 l/m 0,00 h 0,00 h 0,000 mm 0,0 UV-I 0 W/m 4,7 km/h (1 Bft) 0,00 %
28.12.2012 21:00 14,2 C 8,3 C -22,5 C 6,1 C 0,0 C 97 % 0 % 0 lf 1020,1 hPa 0,0 l/m 0,00 h 0,00 h 0,000 mm 0,0 UV-I 0 W/m 7,2 km/h (2 Bft) 0,00 %
28.12.2012 22:00 14,2 C 9,0 C -22,5 C 6,4 C 0,0 C 96 % 0 % 0 lf 1019,7 hPa 0,0 l/m 0,00 h 0,00 h 0,000 mm 0,0 UV-I 0 W/m 7,5 km/h (2 Bft) 0,00 %
28.12.2012 23:00 14,3 C 9,2 C -22,5 C 6,4 C 0,0 C 96 % 0 % 0 lf 1019,4 hPa 0,0 l/m 0,00 h 0,00 h 0,000 mm 0,0 UV-I 0 W/m 2,8 km/h (1 Bft) 0,00 %
29.12.2012 00:00 14,4 C 8,7 C -22,5 C 6,0 C 0,0 C 96 % 0 % 0 lf 1019,5 hPa 0,0 l/m 0,00 h 0,00 h 0,000 mm 0,0 UV-I 0 W/m 1,8 km/h (1 Bft) 0,00 %
29.12.2012 01:00 14,4 C 9,4 C -22,4 C 6,2 C 0,0 C 96 % 0 % 0 lf 1018,9 hPa 0,0 l/m 0,00 h 0,00 h 0,000 mm 0,0 UV-I 0 W/m 8,4 km/h (2 Bft) 0,00 %
29.12.2012 02:00 14,3 C 10,0 C -22,4 C 7,0 C 0,0 C 95 % 0 % 0 lf 1018,4 hPa 0,0 l/m 0,00 h 0,00 h 0,000 mm 0,0 UV-I 0 W/m 9,2 km/h (2 Bft) 0,00 %
29.12.2012 03:00 14,4 C 10,3 C -22,4 C 7,2 C 0,0 C 94 % 0 % 0 lf 1017,7 hPa 0,0 l/m 0,00 h 0,00 h 0,000 mm 0,0 UV-I 0 W/m 9,1 km/h (2 Bft) 0,00 %
29.12.2012 04:00 14,6 C 10,5 C -22,3 C 7,4 C 0,0 C 93 % 0 % 0 lf 1017,3 hPa 0,0 l/m 0,00 h 0,00 h 0,000 mm 0,0 UV-I 0 W/m 11,0 km/h (2 Bft) 0,00 %
29.12.2012 05:00 14,6 C 10,5 C -22,3 C 7,5 C 0,0 C 93 % 0 % 0 lf 1016,9 hPa 0,0 l/m 0,00 h 0,00 h 0,000 mm 0,0 UV-I 0 W/m 8,2 km/h (2 Bft) 0,00 %
29.12.2012 06:00 14,7 C 10,5 C -18,8 C 7,5 C 0,0 C 93 % 0 % 0 lf 1016,5 hPa 0,0 l/m 0,00 h 0,00 h 0,000 mm 0,0 UV-I 0 W/m 7,4 km/h (2 Bft) 0,00 %
29.12.2012 07:00 14,8 C 10,7 C -22,4 C 7,2 C 0,0 C 93 % 0 % 0 lf 1016,0 hPa 0,0 l/m 0,00 h 0,00 h 0,000 mm 0,0 UV-I 0 W/m 7,3 km/h (2 Bft) 0,00 %
29.12.2012 08:00 14,8 C 10,6 C -22,4 C 7,0 C 0,0 C 93 % 0 % 0 lf 1015,6 hPa 0,0 l/m 0,00 h 0,00 h 0,000 mm 0,0 UV-I 0 W/m 8,9 km/h (2 Bft) 0,00 %
29.12.2012 09:00 14,8 C 10,2 C -22,4 C 7,2 C 0,0 C 92 % 0 % 0 lf 1015,3 hPa 0,1 l/m 0,00 h 0,00 h 0,000 mm 0,0 UV-I 0 W/m 1,6 km/h (1 Bft) 0,00 %
29.12.2012 10:00 14,9 C 10,7 C -22,4 C 7,3 C 0,0 C 91 % 0 % 0 lf 1014,7 hPa 0,0 l/m 0,00 h 0,00 h 0,000 mm 0,1 UV-I 0 W/m 0,0 km/h (0 Bft) 0,00 %
29.12.2012 11:00 15,3 C 11,2 C -14,3 C 8,3 C 0,0 C 88 % 19 % 0 lf 1013,9 hPa 0,1 l/m 0,17 h 0,00 h 0,000 mm 0,1 UV-I 217 W/m 5,9 km/h (2 Bft) 23,81 %
29.12.2012 12:00 16,3 C 12,1 C 12,7 C 11,2 C 0,0 C 82 % 74 % 1 lf 1013,0 hPa 0,0 l/m 0,27 h 0,03 h 0,076 mm 0,0 UV-I 205 W/m 27,5 km/h (4 Bft) 98,39 %
29.12.2012 13:00 16,4 C 12,0 C 13,5 C 10,4 C 0,0 C 82 % 71 % 0 lf 1011,8 hPa 0,0 l/m 0,40 h 0,00 h 0,102 mm 0,0 UV-I 193 W/m 25,3 km/h (4 Bft) 99,20 %
29.12.2012 14:00 16,3 C 11,7 C 13,6 C 9,8 C 0,0 C 81 % 69 % 0 lf 1010,5 hPa 0,0 l/m 0,20 h 0,00 h 0,102 mm 0,0 UV-I 135 W/m 28,0 km/h (4 Bft) 98,47 %
29.12.2012 15:00 16,3 C 11,0 C 12,2 C 9,3 C 0,0 C 82 % 72 % 0 lf 1009,7 hPa 0,0 l/m 0,00 h 0,00 h 0,076 mm 0,0 UV-I 37 W/m 25,0 km/h (4 Bft) 99,85 %
29.12.2012 16:00 16,2 C 10,8 C 11,3 C 9,0 C 0,0 C 84 % 75 % 0 lf 1008,8 hPa 0,0 l/m 0,03 h 0,00 h 0,025 mm 0,0 UV-I 8 W/m 26,7 km/h (4 Bft) 99,78 %
29.12.2012 17:00 16,2 C 10,8 C 11,1 C 9,0 C 0,0 C 83 % 76 % 0 lf 1008,0 hPa 0,0 l/m 0,00 h 0,00 h 0,025 mm 0,0 UV-I 0 W/m 27,0 km/h (4 Bft) 98,76 %
29.12.2012 18:00 16,2 C 10,6 C 11,0 C 8,6 C 0,0 C 83 % 76 % 0 lf 1008,0 hPa 0,0 l/m 0,00 h 0,00 h 0,025 mm 0,0 UV-I 0 W/m 21,3 km/h (4 Bft) 99,49 %
29.12.2012 19:00 16,3 C 10,0 C 10,4 C 7,9 C 0,0 C 83 % 75 % 0 lf 1007,9 hPa 0,0 l/m 0,00 h 0,00 h 0,025 mm 0,0 UV-I 0 W/m 13,3 km/h (3 Bft) 100,00 %
29.12.2012 20:00 16,3 C 10,6 C 10,6 C 8,6 C 0,0 C 79 % 72 % 0 lf 1007,9 hPa 0,0 l/m 0,00 h 0,00 h 0,025 mm 0,0 UV-I 0 W/m 16,3 km/h (3 Bft) 99,49 %
29.12.2012 21:00 16,1 C 11,2 C 11,2 C 9,5 C 0,0 C 78 % 72 % 0 lf 1007,9 hPa 0,0 l/m 0,00 h 0,00 h 0,025 mm 0,0 UV-I 0 W/m 19,3 km/h (3 Bft) 98,90 %
29.12.2012 22:00 16,1 C 11,6 C 11,7 C 9,6 C 0,0 C 77 % 71 % 0 lf 1008,1 hPa 0,0 l/m 0,00 h 0,00 h 0,025 mm 0,0 UV-I 0 W/m 18,8 km/h (3 Bft) 99,56 %
29.12.2012 23:00 16,2 C 11,8 C 11,7 C 9,9 C 0,0 C 77 % 71 % 2 lf 1008,2 hPa 0,0 l/m 0,00 h 0,00 h 0,025 mm 0,0 UV-I 0 W/m 19,1 km/h (3 Bft) 97,81 %
Min-Datum _ 26.12.12 28.12.12 28.12.12 28.12.12 24.12.12 24.12.12 24.12.12 24.12.12 25.12.12 - - - - - - 24.12.12 24.12.12
_ Min-Zeit 18:40 08:48 06:22 08:38 00:00 20:06 00:00 00:00 05:16 - - - - - - 00:08 00:00
Minimum _ 12,9 C 4,5 C -22,9 C 2,5 C 0,0 C 74 % 0 % 0 lf 995,4 hPa - - - - - - 0,0 km/h (0 Bft) 0,00 %
Max-Datum _ 29.12.12 24.12.12 25.12.12 29.12.12 25.12.12 24.12.12 29.12.12 29.12.12 28.12.12 27.12.12 29.12.12 29.12.12 29.12.12 25.12.12 29.12.12 25.12.12 29.12.12
_ Max-Zeit 12:20 21:40 07:06 12:00 13:32 10:00 11:35 12:55 10:56 17:30 11:35 12:55 13:00 13:32 12:20 20:18 11:35
Maximum _ 16,5 C 13,3 C 28,9 C 11,8 C 0,3 C 99 % 82 % 15 lf 1024,1 hPa 5,3 l/m 0,03 h 0,03 h 0,102 mm 0,3 UV-I 318 W/m 65,8 km/h
NW (8 Bft)
100,00 %
Durchschnitt _ 14,6 C 9,2 C -15,3 C 6,0 C 0,0 C 90 % 6 % 0 lf 1007,6 hPa #36,4 l/m #1:04 h #2 min. #0,556 mm 0,1 UV-I 133 W/m 12,7 km/h (3 Bft) 8,43 %
© 2012 W. Hausmann